sensor_id;sensor_type;location;lat;lon;timestamp;temperature;humidity
1277;DHT22;631;51.024;13.826;2023-07-13T00:01:50;21.20;1.00
1277;DHT22;631;51.024;13.826;2023-07-13T00:04:18;21.20;1.00
1277;DHT22;631;51.024;13.826;2023-07-13T00:06:44;21.20;1.00
1277;DHT22;631;51.024;13.826;2023-07-13T00:09:12;21.20;1.00
1277;DHT22;631;51.024;13.826;2023-07-13T00:11:39;21.20;1.00
1277;DHT22;631;51.024;13.826;2023-07-13T00:14:05;21.20;1.00
1277;DHT22;631;51.024;13.826;2023-07-13T00:16:30;21.10;1.00
1277;DHT22;631;51.024;13.826;2023-07-13T00:18:56;21.10;1.00
1277;DHT22;631;51.024;13.826;2023-07-13T00:21:22;21.20;1.00
1277;DHT22;631;51.024;13.826;2023-07-13T00:23:49;21.20;1.00
1277;DHT22;631;51.024;13.826;2023-07-13T00:26:14;21.20;1.00
1277;DHT22;631;51.024;13.826;2023-07-13T00:28:40;21.30;1.00
1277;DHT22;631;51.024;13.826;2023-07-13T00:31:07;21.20;1.00
1277;DHT22;631;51.024;13.826;2023-07-13T00:33:33;21.20;1.00
1277;DHT22;631;51.024;13.826;2023-07-13T00:35:59;21.30;1.00
1277;DHT22;631;51.024;13.826;2023-07-13T00:38:24;21.20;1.00
1277;DHT22;631;51.024;13.826;2023-07-13T00:40:50;21.00;1.00
1277;DHT22;631;51.024;13.826;2023-07-13T00:43:18;20.80;98.90
1277;DHT22;631;51.024;13.826;2023-07-13T00:48:18;19.90;1.00
1277;DHT22;631;51.024;13.826;2023-07-13T00:50:48;19.40;99.90
1277;DHT22;631;51.024;13.826;2023-07-13T00:53:14;19.10;1.00
1277;DHT22;631;51.024;13.826;2023-07-13T00:55:40;18.90;1.00
1277;DHT22;631;51.024;13.826;2023-07-13T00:58:06;18.70;1.00
1277;DHT22;631;51.024;13.826;2023-07-13T01:00:36;18.50;1.00
1277;DHT22;631;51.024;13.826;2023-07-13T01:03:04;18.30;1.00
1277;DHT22;631;51.024;13.826;2023-07-13T01:05:32;18.20;32.40
1277;DHT22;631;51.024;13.826;2023-07-13T01:07:59;18.20;99.40
1277;DHT22;631;51.024;13.826;2023-07-13T01:10:26;18.20;99.90
1277;DHT22;631;51.024;13.826;2023-07-13T01:12:53;18.10;99.90
1277;DHT22;631;51.024;13.826;2023-07-13T01:15:41;18.10;99.90
1277;DHT22;631;51.024;13.826;2023-07-13T01:18:12;18.10;99.90
1277;DHT22;631;51.024;13.826;2023-07-13T01:20:40;18.10;99.90
1277;DHT22;631;51.024;13.826;2023-07-13T01:23:07;17.90;99.90
1277;DHT22;631;51.024;13.826;2023-07-13T01:25:35;17.80;99.90
1277;DHT22;631;51.024;13.826;2023-07-13T01:28:02;17.70;99.90
1277;DHT22;631;51.024;13.826;2023-07-13T01:30:28;17.60;99.90
1277;DHT22;631;51.024;13.826;2023-07-13T01:32:54;17.60;99.90
1277;DHT22;631;51.024;13.826;2023-07-13T01:35:20;17.60;99.90
1277;DHT22;631;51.024;13.826;2023-07-13T01:37:45;17.50;99.90
1277;DHT22;631;51.024;13.826;2023-07-13T01:40:12;17.40;99.90
1277;DHT22;631;51.024;13.826;2023-07-13T01:42:38;17.40;99.90
1277;DHT22;631;51.024;13.826;2023-07-13T01:45:04;17.40;99.90
1277;DHT22;631;51.024;13.826;2023-07-13T01:47:30;17.40;99.90
1277;DHT22;631;51.024;13.826;2023-07-13T01:49:57;17.40;99.90
1277;DHT22;631;51.024;13.826;2023-07-13T01:52:23;17.40;99.90
1277;DHT22;631;51.024;13.826;2023-07-13T01:54:48;17.40;99.90
1277;DHT22;631;51.024;13.826;2023-07-13T01:57:14;17.40;99.90
1277;DHT22;631;51.024;13.826;2023-07-13T01:59:40;17.50;99.90
1277;DHT22;631;51.024;13.826;2023-07-13T02:02:05;17.50;99.90
1277;DHT22;631;51.024;13.826;2023-07-13T02:04:31;17.60;99.90
1277;DHT22;631;51.024;13.826;2023-07-13T02:06:57;17.60;99.90
1277;DHT22;631;51.024;13.826;2023-07-13T02:09:23;17.50;99.90
1277;DHT22;631;51.024;13.826;2023-07-13T02:11:49;17.50;99.90
1277;DHT22;631;51.024;13.826;2023-07-13T02:14:14;17.50;99.90
1277;DHT22;631;51.024;13.826;2023-07-13T02:16:41;17.50;99.90
1277;DHT22;631;51.024;13.826;2023-07-13T02:19:07;17.60;99.90
1277;DHT22;631;51.024;13.826;2023-07-13T02:21:33;17.60;99.90
1277;DHT22;631;51.024;13.826;2023-07-13T02:23:59;17.50;99.90
1277;DHT22;631;51.024;13.826;2023-07-13T02:26:25;17.50;99.90
1277;DHT22;631;51.024;13.826;2023-07-13T02:28:51;17.50;99.90
1277;DHT22;631;51.024;13.826;2023-07-13T02:31:17;17.50;99.90
1277;DHT22;631;51.024;13.826;2023-07-13T02:33:43;17.50;99.90
1277;DHT22;631;51.024;13.826;2023-07-13T02:36:09;17.40;99.90
1277;DHT22;631;51.024;13.826;2023-07-13T02:38:35;17.40;99.90
1277;DHT22;631;51.024;13.826;2023-07-13T02:41:03;17.40;99.90
1277;DHT22;631;51.024;13.826;2023-07-13T02:43:29;17.40;99.90
1277;DHT22;631;51.024;13.826;2023-07-13T02:45:55;17.40;99.90
1277;DHT22;631;51.024;13.826;2023-07-13T02:48:20;17.40;99.90
1277;DHT22;631;51.024;13.826;2023-07-13T02:50:46;17.40;99.90
1277;DHT22;631;51.024;13.826;2023-07-13T02:53:12;17.40;99.90
1277;DHT22;631;51.024;13.826;2023-07-13T02:55:37;17.40;99.90
1277;DHT22;631;51.024;13.826;2023-07-13T02:58:03;17.30;99.90
1277;DHT22;631;51.024;13.826;2023-07-13T03:00:29;17.30;99.90
1277;DHT22;631;51.024;13.826;2023-07-13T03:02:56;17.20;99.90
1277;DHT22;631;51.024;13.826;2023-07-13T03:05:23;17.30;99.90
1277;DHT22;631;51.024;13.826;2023-07-13T03:07:49;17.30;99.90
1277;DHT22;631;51.024;13.826;2023-07-13T03:10:15;17.30;99.90
1277;DHT22;631;51.024;13.826;2023-07-13T03:12:41;17.20;99.90
1277;DHT22;631;51.024;13.826;2023-07-13T03:15:07;17.20;99.90
1277;DHT22;631;51.024;13.826;2023-07-13T03:17:33;17.30;99.90
1277;DHT22;631;51.024;13.826;2023-07-13T03:19:58;17.20;99.90
1277;DHT22;631;51.024;13.826;2023-07-13T03:22:24;17.30;99.90
1277;DHT22;631;51.024;13.826;2023-07-13T03:24:49;17.20;99.90
1277;DHT22;631;51.024;13.826;2023-07-13T03:27:17;17.20;99.90
1277;DHT22;631;51.024;13.826;2023-07-13T03:29:43;17.30;99.90
1277;DHT22;631;51.024;13.826;2023-07-13T03:32:09;17.20;99.90
1277;DHT22;631;51.024;13.826;2023-07-13T03:34:35;17.20;99.90
1277;DHT22;631;51.024;13.826;2023-07-13T03:37:00;17.20;99.90
1277;DHT22;631;51.024;13.826;2023-07-13T03:39:26;17.20;99.90
1277;DHT22;631;51.024;13.826;2023-07-13T03:41:52;17.20;99.90
1277;DHT22;631;51.024;13.826;2023-07-13T03:44:18;17.20;99.90
1277;DHT22;631;51.024;13.826;2023-07-13T03:46:44;17.20;99.90
1277;DHT22;631;51.024;13.826;2023-07-13T03:49:10;17.20;99.90
1277;DHT22;631;51.024;13.826;2023-07-13T03:51:36;17.20;99.90
1277;DHT22;631;51.024;13.826;2023-07-13T03:54:02;17.30;99.90
1277;DHT22;631;51.024;13.826;2023-07-13T03:56:28;17.20;99.90
1277;DHT22;631;51.024;13.826;2023-07-13T03:58:55;17.30;99.90
1277;DHT22;631;51.024;13.826;2023-07-13T04:01:22;17.30;99.90
1277;DHT22;631;51.024;13.826;2023-07-13T04:03:48;17.30;99.90
1277;DHT22;631;51.024;13.826;2023-07-13T04:06:20;17.30;99.90
1277;DHT22;631;51.024;13.826;2023-07-13T04:08:51;17.40;99.90
1277;DHT22;631;51.024;13.826;2023-07-13T04:11:19;17.40;99.90
1277;DHT22;631;51.024;13.826;2023-07-13T04:13:45;17.40;99.90
1277;DHT22;631;51.024;13.826;2023-07-13T04:16:11;17.40;99.90
1277;DHT22;631;51.024;13.826;2023-07-13T04:18:37;17.40;99.90
1277;DHT22;631;51.024;13.826;2023-07-13T04:21:02;17.50;99.90
1277;DHT22;631;51.024;13.826;2023-07-13T04:23:28;17.60;99.90
1277;DHT22;631;51.024;13.826;2023-07-13T04:25:54;17.70;99.90
1277;DHT22;631;51.024;13.826;2023-07-13T04:28:23;17.80;99.90
1277;DHT22;631;51.024;13.826;2023-07-13T04:30:50;17.90;99.90
1277;DHT22;631;51.024;13.826;2023-07-13T04:33:16;18.00;99.90
1277;DHT22;631;51.024;13.826;2023-07-13T04:35:52;18.10;99.90
1277;DHT22;631;51.024;13.826;2023-07-13T04:38:27;18.10;99.90
1277;DHT22;631;51.024;13.826;2023-07-13T04:41:00;18.10;99.90
1277;DHT22;631;51.024;13.826;2023-07-13T04:43:27;18.10;99.90
1277;DHT22;631;51.024;13.826;2023-07-13T04:45:53;18.20;99.90
1277;DHT22;631;51.024;13.826;2023-07-13T04:48:19;18.30;99.90
1277;DHT22;631;51.024;13.826;2023-07-13T04:50:45;18.30;99.90
1277;DHT22;631;51.024;13.826;2023-07-13T04:53:11;18.30;99.90
1277;DHT22;631;51.024;13.826;2023-07-13T04:55:38;18.40;99.90
1277;DHT22;631;51.024;13.826;2023-07-13T04:58:04;18.40;99.90
1277;DHT22;631;51.024;13.826;2023-07-13T05:00:30;18.40;99.90
1277;DHT22;631;51.024;13.826;2023-07-13T05:02:57;18.40;99.90
1277;DHT22;631;51.024;13.826;2023-07-13T05:05:24;18.50;99.90
1277;DHT22;631;51.024;13.826;2023-07-13T05:07:51;18.50;99.90
1277;DHT22;631;51.024;13.826;2023-07-13T05:10:17;18.50;99.90
1277;DHT22;631;51.024;13.826;2023-07-13T05:12:43;18.50;99.90
1277;DHT22;631;51.024;13.826;2023-07-13T05:15:10;18.40;99.90
1277;DHT22;631;51.024;13.826;2023-07-13T05:17:36;18.50;99.90
1277;DHT22;631;51.024;13.826;2023-07-13T05:20:05;18.50;99.90
1277;DHT22;631;51.024;13.826;2023-07-13T05:22:31;18.60;99.90
1277;DHT22;631;51.024;13.826;2023-07-13T05:24:56;18.50;99.90
1277;DHT22;631;51.024;13.826;2023-07-13T05:27:22;18.50;99.90
1277;DHT22;631;51.024;13.826;2023-07-13T05:29:49;18.60;99.90
1277;DHT22;631;51.024;13.826;2023-07-13T05:32:15;18.70;99.90
1277;DHT22;631;51.024;13.826;2023-07-13T05:34:40;18.70;99.90
1277;DHT22;631;51.024;13.826;2023-07-13T05:37:07;18.70;99.90
1277;DHT22;631;51.024;13.826;2023-07-13T05:39:33;18.90;99.90
1277;DHT22;631;51.024;13.826;2023-07-13T05:41:58;18.80;99.90
1277;DHT22;631;51.024;13.826;2023-07-13T05:44:24;18.70;99.90
1277;DHT22;631;51.024;13.826;2023-07-13T05:46:49;18.70;99.90
1277;DHT22;631;51.024;13.826;2023-07-13T05:49:15;18.80;99.90
1277;DHT22;631;51.024;13.826;2023-07-13T05:51:41;18.90;99.90
1277;DHT22;631;51.024;13.826;2023-07-13T05:54:06;18.90;99.90
1277;DHT22;631;51.024;13.826;2023-07-13T05:56:32;18.90;95.20
1277;DHT22;631;51.024;13.826;2023-07-13T05:58:57;19.00;86.20
1277;DHT22;631;51.024;13.826;2023-07-13T06:01:23;19.00;91.30
1277;DHT22;631;51.024;13.826;2023-07-13T06:03:49;19.10;96.90
1277;DHT22;631;51.024;13.826;2023-07-13T06:06:15;19.10;97.50
1277;DHT22;631;51.024;13.826;2023-07-13T06:08:41;19.20;99.90
1277;DHT22;631;51.024;13.826;2023-07-13T06:11:19;19.20;99.90
1277;DHT22;631;51.024;13.826;2023-07-13T06:13:45;19.20;94.20
1277;DHT22;631;51.024;13.826;2023-07-13T06:16:11;19.10;90.60
1277;DHT22;631;51.024;13.826;2023-07-13T06:18:37;19.10;95.50
1277;DHT22;631;51.024;13.826;2023-07-13T06:21:10;19.20;96.10
1277;DHT22;631;51.024;13.826;2023-07-13T06:23:37;19.20;94.80
1277;DHT22;631;51.024;13.826;2023-07-13T06:26:03;19.10;97.00
1277;DHT22;631;51.024;13.826;2023-07-13T06:28:29;19.20;99.80
1277;DHT22;631;51.024;13.826;2023-07-13T06:30:57;19.20;99.90
1277;DHT22;631;51.024;13.826;2023-07-13T06:33:23;19.30;99.90
1277;DHT22;631;51.024;13.826;2023-07-13T06:35:48;19.40;99.90
1277;DHT22;631;51.024;13.826;2023-07-13T06:38:14;19.50;99.90
1277;DHT22;631;51.024;13.826;2023-07-13T06:40:40;19.60;99.90
1277;DHT22;631;51.024;13.826;2023-07-13T06:43:06;19.70;91.70
1277;DHT22;631;51.024;13.826;2023-07-13T06:45:39;19.80;55.20
1277;DHT22;631;51.024;13.826;2023-07-13T06:48:05;19.90;30.00
1277;DHT22;631;51.024;13.826;2023-07-13T06:50:31;20.00;19.10
1277;DHT22;631;51.024;13.826;2023-07-13T06:52:56;20.10;25.30
1277;DHT22;631;51.024;13.826;2023-07-13T06:55:22;20.20;15.80
1277;DHT22;631;51.024;13.826;2023-07-13T06:57:48;20.40;1.00
1277;DHT22;631;51.024;13.826;2023-07-13T07:00:14;20.50;1.00
1277;DHT22;631;51.024;13.826;2023-07-13T07:02:40;20.60;1.00
1277;DHT22;631;51.024;13.826;2023-07-13T07:05:05;20.70;1.00
1277;DHT22;631;51.024;13.826;2023-07-13T07:07:31;21.00;1.00
1277;DHT22;631;51.024;13.826;2023-07-13T07:09:56;21.20;1.00
1277;DHT22;631;51.024;13.826;2023-07-13T07:12:22;21.40;1.00
1277;DHT22;631;51.024;13.826;2023-07-13T07:14:47;21.60;1.00
1277;DHT22;631;51.024;13.826;2023-07-13T07:17:13;21.80;1.00
1277;DHT22;631;51.024;13.826;2023-07-13T07:19:39;21.90;99.90
1277;DHT22;631;51.024;13.826;2023-07-13T07:22:05;22.10;99.90
1277;DHT22;631;51.024;13.826;2023-07-13T07:24:31;22.20;99.90
1277;DHT22;631;51.024;13.826;2023-07-13T07:26:57;22.20;1.00
1277;DHT22;631;51.024;13.826;2023-07-13T07:29:22;22.30;99.90
1277;DHT22;631;51.024;13.826;2023-07-13T07:31:50;22.40;1.00
1277;DHT22;631;51.024;13.826;2023-07-13T07:34:16;22.50;1.00
1277;DHT22;631;51.024;13.826;2023-07-13T07:36:41;22.60;1.00
1277;DHT22;631;51.024;13.826;2023-07-13T07:39:07;22.60;1.00
1277;DHT22;631;51.024;13.826;2023-07-13T07:41:32;22.80;1.00
1277;DHT22;631;51.024;13.826;2023-07-13T07:43:58;22.70;1.00
1277;DHT22;631;51.024;13.826;2023-07-13T07:46:24;22.80;1.00
1277;DHT22;631;51.024;13.826;2023-07-13T07:48:49;22.80;1.00
1277;DHT22;631;51.024;13.826;2023-07-13T07:51:15;22.80;1.00
1277;DHT22;631;51.024;13.826;2023-07-13T07:53:41;22.80;1.00
1277;DHT22;631;51.024;13.826;2023-07-13T07:56:07;23.00;1.00
1277;DHT22;631;51.024;13.826;2023-07-13T07:58:33;23.10;52.30
1277;DHT22;631;51.024;13.826;2023-07-13T08:01:03;23.20;1.00
1277;DHT22;631;51.024;13.826;2023-07-13T08:03:29;23.30;99.90
1277;DHT22;631;51.024;13.826;2023-07-13T08:05:55;23.50;99.90
1277;DHT22;631;51.024;13.826;2023-07-13T08:08:21;23.70;1.00
1277;DHT22;631;51.024;13.826;2023-07-13T08:10:46;23.80;1.00
1277;DHT22;631;51.024;13.826;2023-07-13T08:13:12;23.90;1.00
1277;DHT22;631;51.024;13.826;2023-07-13T08:15:37;24.00;1.00
1277;DHT22;631;51.024;13.826;2023-07-13T08:18:03;24.20;1.00
1277;DHT22;631;51.024;13.826;2023-07-13T08:20:29;24.40;1.00
1277;DHT22;631;51.024;13.826;2023-07-13T08:22:54;24.60;1.00
1277;DHT22;631;51.024;13.826;2023-07-13T08:25:20;24.80;99.90
1277;DHT22;631;51.024;13.826;2023-07-13T08:27:47;24.90;99.90
1277;DHT22;631;51.024;13.826;2023-07-13T08:30:12;24.80;99.90
1277;DHT22;631;51.024;13.826;2023-07-13T08:32:38;24.60;99.90
1277;DHT22;631;51.024;13.826;2023-07-13T08:35:05;24.60;99.90
1277;DHT22;631;51.024;13.826;2023-07-13T08:37:31;24.60;99.90
1277;DHT22;631;51.024;13.826;2023-07-13T08:39:56;24.70;99.90
1277;DHT22;631;51.024;13.826;2023-07-13T08:42:39;24.80;99.90
1277;DHT22;631;51.024;13.826;2023-07-13T08:45:21;24.90;99.90
1277;DHT22;631;51.024;13.826;2023-07-13T08:47:57;25.10;99.90
1277;DHT22;631;51.024;13.826;2023-07-13T08:50:31;25.40;99.90
1277;DHT22;631;51.024;13.826;2023-07-13T08:53:01;25.60;99.90
1277;DHT22;631;51.024;13.826;2023-07-13T08:55:31;25.70;99.90
1277;DHT22;631;51.024;13.826;2023-07-13T08:58:12;26.20;99.90
1277;DHT22;631;51.024;13.826;2023-07-13T09:01:13;26.50;99.90
1277;DHT22;631;51.024;13.826;2023-07-13T09:03:53;26.60;99.90
1277;DHT22;631;51.024;13.826;2023-07-13T09:07:11;26.80;99.90
1277;DHT22;631;51.024;13.826;2023-07-13T09:09:27;27.10;99.90
1277;DHT22;631;51.024;13.826;2023-07-13T09:14:46;27.30;99.90
1277;DHT22;631;51.024;13.826;2023-07-13T09:17:40;27.10;99.90
1277;DHT22;631;51.024;13.826;2023-07-13T09:22:54;27.40;99.90
1277;DHT22;631;51.024;13.826;2023-07-13T09:27:49;27.90;99.90
1277;DHT22;631;51.024;13.826;2023-07-13T09:32:49;27.90;99.90
1277;DHT22;631;51.024;13.826;2023-07-13T09:35:20;27.60;99.90
1277;DHT22;631;51.024;13.826;2023-07-13T09:37:47;27.70;99.90
1277;DHT22;631;51.024;13.826;2023-07-13T09:40:28;27.70;99.90
1277;DHT22;631;51.024;13.826;2023-07-13T09:42:57;27.70;99.90
1277;DHT22;631;51.024;13.826;2023-07-13T09:45:28;27.90;99.90
1277;DHT22;631;51.024;13.826;2023-07-13T09:48:15;28.20;99.90
1277;DHT22;631;51.024;13.826;2023-07-13T09:50:42;28.30;99.90
1277;DHT22;631;51.024;13.826;2023-07-13T09:53:16;28.60;99.90
1277;DHT22;631;51.024;13.826;2023-07-13T09:55:43;28.50;99.90
1277;DHT22;631;51.024;13.826;2023-07-13T09:58:11;28.60;99.90
1277;DHT22;631;51.024;13.826;2023-07-13T10:00:37;28.60;99.90
1277;DHT22;631;51.024;13.826;2023-07-13T10:03:22;28.50;99.90
1277;DHT22;631;51.024;13.826;2023-07-13T10:05:50;28.80;99.90
1277;DHT22;631;51.024;13.826;2023-07-13T10:10:51;28.90;99.90
1277;DHT22;631;51.024;13.826;2023-07-13T10:13:34;28.80;99.90
1277;DHT22;631;51.024;13.826;2023-07-13T10:16:03;29.10;99.90
1277;DHT22;631;51.024;13.826;2023-07-13T10:18:43;29.70;99.90
1277;DHT22;631;51.024;13.826;2023-07-13T10:21:16;30.40;99.90
1277;DHT22;631;51.024;13.826;2023-07-13T10:23:45;30.80;99.90
1277;DHT22;631;51.024;13.826;2023-07-13T10:26:17;30.70;99.90
1277;DHT22;631;51.024;13.826;2023-07-13T10:28:45;30.90;99.90
1277;DHT22;631;51.024;13.826;2023-07-13T10:31:15;30.80;99.90
1277;DHT22;631;51.024;13.826;2023-07-13T10:33:41;30.60;99.90
1277;DHT22;631;51.024;13.826;2023-07-13T10:38:51;30.80;99.90
1277;DHT22;631;51.024;13.826;2023-07-13T10:41:21;30.60;99.90
1277;DHT22;631;51.024;13.826;2023-07-13T10:43:53;30.60;99.90
1277;DHT22;631;51.024;13.826;2023-07-13T10:46:23;29.90;99.90
1277;DHT22;631;51.024;13.826;2023-07-13T10:48:56;29.90;99.90
1277;DHT22;631;51.024;13.826;2023-07-13T10:51:23;29.90;99.90
1277;DHT22;631;51.024;13.826;2023-07-13T10:54:15;30.30;99.90
1277;DHT22;631;51.024;13.826;2023-07-13T10:56:49;31.20;99.90
1277;DHT22;631;51.024;13.826;2023-07-13T10:59:18;31.80;99.90
1277;DHT22;631;51.024;13.826;2023-07-13T11:04:29;32.20;99.90
1277;DHT22;631;51.024;13.826;2023-07-13T11:07:18;32.50;99.90
1277;DHT22;631;51.024;13.826;2023-07-13T11:09:44;32.00;99.90
1277;DHT22;631;51.024;13.826;2023-07-13T11:15:05;33.00;99.90
1277;DHT22;631;51.024;13.826;2023-07-13T11:17:37;33.30;99.90
1277;DHT22;631;51.024;13.826;2023-07-13T11:22:46;34.10;99.90
1277;DHT22;631;51.024;13.826;2023-07-13T11:30:39;33.60;99.90
1277;DHT22;631;51.024;13.826;2023-07-13T11:36:18;33.30;99.90
1277;DHT22;631;51.024;13.826;2023-07-13T11:39:05;33.30;99.90
1277;DHT22;631;51.024;13.826;2023-07-13T11:41:44;33.80;99.90
1277;DHT22;631;51.024;13.826;2023-07-13T11:44:13;34.50;99.90
1277;DHT22;631;51.024;13.826;2023-07-13T11:46:51;33.90;99.90
1277;DHT22;631;51.024;13.826;2023-07-13T11:49:19;33.90;99.90
1277;DHT22;631;51.024;13.826;2023-07-13T11:51:45;33.70;99.90
1277;DHT22;631;51.024;13.826;2023-07-13T11:57:28;32.80;99.90
1277;DHT22;631;51.024;13.826;2023-07-13T11:59:55;32.90;99.90
1277;DHT22;631;51.024;13.826;2023-07-13T12:02:31;32.60;99.90
1277;DHT22;631;51.024;13.826;2023-07-13T12:04:59;33.00;99.90
1277;DHT22;631;51.024;13.826;2023-07-13T12:07:29;33.30;99.90
1277;DHT22;631;51.024;13.826;2023-07-13T12:12:57;32.30;99.90
1277;DHT22;631;51.024;13.826;2023-07-13T12:15:40;32.10;99.90
1277;DHT22;631;51.024;13.826;2023-07-13T12:18:19;32.30;99.90
1277;DHT22;631;51.024;13.826;2023-07-13T12:20:46;32.60;99.90
1277;DHT22;631;51.024;13.826;2023-07-13T12:23:31;32.80;99.90
1277;DHT22;631;51.024;13.826;2023-07-13T12:25:59;33.50;99.90
1277;DHT22;631;51.024;13.826;2023-07-13T12:28:35;34.40;99.90
1277;DHT22;631;51.024;13.826;2023-07-13T12:31:05;35.10;99.90
1277;DHT22;631;51.024;13.826;2023-07-13T12:33:33;35.40;99.90
1277;DHT22;631;51.024;13.826;2023-07-13T12:36:03;35.50;99.90
1277;DHT22;631;51.024;13.826;2023-07-13T12:38:32;35.30;99.90
1277;DHT22;631;51.024;13.826;2023-07-13T12:40:58;34.20;99.90
1277;DHT22;631;51.024;13.826;2023-07-13T12:43:25;34.20;99.90
1277;DHT22;631;51.024;13.826;2023-07-13T12:46:02;34.90;99.90
1277;DHT22;631;51.024;13.826;2023-07-13T12:48:28;35.40;99.90
1277;DHT22;631;51.024;13.826;2023-07-13T12:50:55;35.90;99.90
1277;DHT22;631;51.024;13.826;2023-07-13T12:53:29;35.70;99.90
1277;DHT22;631;51.024;13.826;2023-07-13T12:56:02;34.90;99.90
1277;DHT22;631;51.024;13.826;2023-07-13T12:58:30;33.50;99.90
1277;DHT22;631;51.024;13.826;2023-07-13T13:00:59;33.10;99.90
1277;DHT22;631;51.024;13.826;2023-07-13T13:03:37;33.30;99.90
1277;DHT22;631;51.024;13.826;2023-07-13T13:06:24;32.80;99.90
1277;DHT22;631;51.024;13.826;2023-07-13T13:08:53;33.00;99.90
1277;DHT22;631;51.024;13.826;2023-07-13T13:11:20;33.40;99.90
1277;DHT22;631;51.024;13.826;2023-07-13T13:13:46;33.90;99.90
1277;DHT22;631;51.024;13.826;2023-07-13T13:18:44;34.60;99.90
1277;DHT22;631;51.024;13.826;2023-07-13T13:21:10;34.90;99.90
1277;DHT22;631;51.024;13.826;2023-07-13T13:23:36;35.10;99.90
1277;DHT22;631;51.024;13.826;2023-07-13T13:26:03;35.30;99.90
1277;DHT22;631;51.024;13.826;2023-07-13T13:28:29;34.70;99.90
1277;DHT22;631;51.024;13.826;2023-07-13T13:30:55;35.00;99.90
1277;DHT22;631;51.024;13.826;2023-07-13T13:33:21;34.20;99.90
1277;DHT22;631;51.024;13.826;2023-07-13T13:35:47;32.90;99.90
1277;DHT22;631;51.024;13.826;2023-07-13T13:38:15;32.30;99.90
1277;DHT22;631;51.024;13.826;2023-07-13T13:40:42;32.60;99.90
1277;DHT22;631;51.024;13.826;2023-07-13T13:45:41;33.30;99.90
1277;DHT22;631;51.024;13.826;2023-07-13T13:48:13;32.70;99.90
1277;DHT22;631;51.024;13.826;2023-07-13T13:50:39;32.30;99.90
1277;DHT22;631;51.024;13.826;2023-07-13T13:53:11;32.10;99.90
1277;DHT22;631;51.024;13.826;2023-07-13T13:55:37;31.60;99.90
1277;DHT22;631;51.024;13.826;2023-07-13T13:58:04;31.70;99.90
1277;DHT22;631;51.024;13.826;2023-07-13T14:00:29;32.30;99.90
1277;DHT22;631;51.024;13.826;2023-07-13T14:02:55;32.50;99.90
1277;DHT22;631;51.024;13.826;2023-07-13T14:05:24;32.70;99.90
1277;DHT22;631;51.024;13.826;2023-07-13T14:07:54;32.30;99.90
1277;DHT22;631;51.024;13.826;2023-07-13T14:10:20;32.20;99.90
1277;DHT22;631;51.024;13.826;2023-07-13T14:12:50;32.80;99.90
1277;DHT22;631;51.024;13.826;2023-07-13T14:15:28;32.80;99.90
1277;DHT22;631;51.024;13.826;2023-07-13T14:17:56;33.20;99.90
1277;DHT22;631;51.024;13.826;2023-07-13T14:20:24;33.90;99.90
1277;DHT22;631;51.024;13.826;2023-07-13T14:22:53;34.30;99.90
1277;DHT22;631;51.024;13.826;2023-07-13T14:25:21;34.30;99.90
1277;DHT22;631;51.024;13.826;2023-07-13T14:27:51;34.20;99.90
1277;DHT22;631;51.024;13.826;2023-07-13T14:30:21;34.50;99.90
1277;DHT22;631;51.024;13.826;2023-07-13T14:32:47;34.30;99.90
1277;DHT22;631;51.024;13.826;2023-07-13T14:35:15;34.60;99.90
1277;DHT22;631;51.024;13.826;2023-07-13T14:37:42;34.60;99.90
1277;DHT22;631;51.024;13.826;2023-07-13T14:40:24;34.20;99.90
1277;DHT22;631;51.024;13.826;2023-07-13T14:42:51;34.00;99.90
1277;DHT22;631;51.024;13.826;2023-07-13T14:45:19;34.30;99.90
1277;DHT22;631;51.024;13.826;2023-07-13T14:47:45;34.60;99.90
1277;DHT22;631;51.024;13.826;2023-07-13T14:50:17;34.50;99.90
1277;DHT22;631;51.024;13.826;2023-07-13T14:52:44;34.10;99.90
1277;DHT22;631;51.024;13.826;2023-07-13T14:55:17;33.90;99.90
1277;DHT22;631;51.024;13.826;2023-07-13T14:57:43;34.00;99.90
1277;DHT22;631;51.024;13.826;2023-07-13T15:00:17;33.90;99.90
1277;DHT22;631;51.024;13.826;2023-07-13T15:03:01;33.70;99.90
1277;DHT22;631;51.024;13.826;2023-07-13T15:05:29;33.20;99.90
1277;DHT22;631;51.024;13.826;2023-07-13T15:07:58;32.90;99.90
1277;DHT22;631;51.024;13.826;2023-07-13T15:10:31;33.00;99.90
1277;DHT22;631;51.024;13.826;2023-07-13T15:13:14;33.20;99.90
1277;DHT22;631;51.024;13.826;2023-07-13T15:15:44;33.50;99.90
1277;DHT22;631;51.024;13.826;2023-07-13T15:18:11;33.60;99.90
1277;DHT22;631;51.024;13.826;2023-07-13T15:20:37;33.90;99.90
1277;DHT22;631;51.024;13.826;2023-07-13T15:23:04;34.00;99.90
1277;DHT22;631;51.024;13.826;2023-07-13T15:25:31;33.90;99.90
1277;DHT22;631;51.024;13.826;2023-07-13T15:27:59;34.10;99.90
1277;DHT22;631;51.024;13.826;2023-07-13T15:30:36;33.90;99.90
1277;DHT22;631;51.024;13.826;2023-07-13T15:35:36;33.10;99.90
1277;DHT22;631;51.024;13.826;2023-07-13T15:38:13;32.80;99.90
1277;DHT22;631;51.024;13.826;2023-07-13T15:40:39;32.50;99.90
1277;DHT22;631;51.024;13.826;2023-07-13T15:43:13;32.70;99.90
1277;DHT22;631;51.024;13.826;2023-07-13T15:45:39;32.80;99.90
1277;DHT22;631;51.024;13.826;2023-07-13T15:48:31;32.80;99.90
1277;DHT22;631;51.024;13.826;2023-07-13T15:51:05;33.00;99.90
1277;DHT22;631;51.024;13.826;2023-07-13T15:53:38;32.80;99.90
1277;DHT22;631;51.024;13.826;2023-07-13T15:56:25;33.00;99.90
1277;DHT22;631;51.024;13.826;2023-07-13T15:58:52;32.70;99.90
1277;DHT22;631;51.024;13.826;2023-07-13T16:01:18;32.80;99.90
1277;DHT22;631;51.024;13.826;2023-07-13T16:03:47;32.90;99.90
1277;DHT22;631;51.024;13.826;2023-07-13T16:06:20;32.90;99.90
1277;DHT22;631;51.024;13.826;2023-07-13T16:08:48;33.10;99.90
1277;DHT22;631;51.024;13.826;2023-07-13T16:11:37;33.30;99.90
1277;DHT22;631;51.024;13.826;2023-07-13T16:14:04;33.40;99.90
1277;DHT22;631;51.024;13.826;2023-07-13T16:16:33;33.40;99.90
1277;DHT22;631;51.024;13.826;2023-07-13T16:19:02;33.60;99.90
1277;DHT22;631;51.024;13.826;2023-07-13T16:21:35;33.70;99.90
1277;DHT22;631;51.024;13.826;2023-07-13T16:24:03;33.60;99.90
1277;DHT22;631;51.024;13.826;2023-07-13T16:26:36;33.50;99.90
1277;DHT22;631;51.024;13.826;2023-07-13T16:29:20;33.50;99.90
1277;DHT22;631;51.024;13.826;2023-07-13T16:32:06;33.40;99.90
1277;DHT22;631;51.024;13.826;2023-07-13T16:34:34;33.30;99.90
1277;DHT22;631;51.024;13.826;2023-07-13T16:37:01;33.20;99.90
1277;DHT22;631;51.024;13.826;2023-07-13T16:39:28;33.10;99.90
1277;DHT22;631;51.024;13.826;2023-07-13T16:41:57;33.10;99.90
1277;DHT22;631;51.024;13.826;2023-07-13T16:44:24;32.90;99.90
1277;DHT22;631;51.024;13.826;2023-07-13T16:46:52;32.80;99.90
1277;DHT22;631;51.024;13.826;2023-07-13T16:49:29;32.70;99.90
1277;DHT22;631;51.024;13.826;2023-07-13T16:51:57;32.60;99.90
1277;DHT22;631;51.024;13.826;2023-07-13T16:54:38;32.60;99.90
1277;DHT22;631;51.024;13.826;2023-07-13T16:57:13;32.40;99.90
1277;DHT22;631;51.024;13.826;2023-07-13T16:59:40;32.00;99.90
1277;DHT22;631;51.024;13.826;2023-07-13T17:04:52;31.70;99.90
1277;DHT22;631;51.024;13.826;2023-07-13T17:07:18;31.50;99.90